Time;durP1;ratioP1;P1;durP2;ratioP2;P2;SDS_P1;SDS_P2;PMS_P1;PMS_P2;Temp;Humidity;BMP_temperature;BMP_pressure;BME280_temperature;BME280_humidity;BME280_pressure;Samples;Min_cycle;Max_cycle;Signal;HPM_P1;HPM_P2
2023/04/10 00:00:41;;;;;;;10.65;8.68;;;9.00;99.90;;;;;;5023085;28;20418;-70
2023/04/10 00:03:08;;;;;;;11.05;9.30;;;9.10;99.90;;;;;;5010321;28;20072;-72
2023/04/10 00:05:36;;;;;;;11.95;8.80;;;8.90;99.90;;;;;;5008832;28;20042;-71
2023/04/10 00:08:06;;;;;;;10.45;8.43;;;8.90;99.90;;;;;;5017096;28;20056;-71
2023/04/10 00:10:35;;;;;;;11.73;8.57;;;9.00;99.90;;;;;;4986381;28;20046;-71
2023/04/10 00:13:03;;;;;;;11.90;9.32;;;9.00;99.90;;;;;;4992839;28;20565;-71
2023/04/10 00:15:31;;;;;;;11.25;8.85;;;8.90;99.90;;;;;;5024204;28;20033;-72
2023/04/10 00:17:59;;;;;;;12.38;9.68;;;8.70;99.90;;;;;;5014591;28;20038;-70
2023/04/10 00:20:27;;;;;;;11.98;9.18;;;8.70;99.90;;;;;;5018876;28;20033;-72
2023/04/10 00:22:55;;;;;;;12.45;9.48;;;8.80;99.90;;;;;;5013249;28;20033;-72
2023/04/10 00:25:23;;;;;;;11.38;9.02;;;8.80;99.90;;;;;;5013392;28;20409;-71
2023/04/10 00:27:50;;;;;;;11.82;9.38;;;8.80;99.90;;;;;;5006006;28;20048;-73
2023/04/10 00:30:18;;;;;;;13.23;9.45;;;8.90;99.90;;;;;;5006691;28;20049;-72
2023/04/10 00:32:45;;;;;;;12.02;8.90;;;8.70;99.90;;;;;;4997585;28;20421;-72
2023/04/10 00:35:12;;;;;;;11.20;9.02;;;8.60;99.90;;;;;;4995135;28;20049;-71
2023/04/10 00:37:40;;;;;;;13.20;9.55;;;8.60;99.90;;;;;;4990739;28;20046;-72
2023/04/10 00:40:08;;;;;;;13.05;9.15;;;8.60;99.90;;;;;;5011556;28;20121;-72
2023/04/10 00:42:36;;;;;;;14.20;9.30;;;8.60;99.90;;;;;;5011363;28;20037;-73
2023/04/10 00:45:03;;;;;;;11.05;9.10;;;8.70;99.90;;;;;;4977897;28;20050;-73
2023/04/10 00:47:36;;;;;;;13.75;9.85;;;8.80;99.90;;;;;;5028086;28;20041;-73
2023/04/10 00:50:05;;;;;;;13.88;9.73;;;8.80;99.90;;;;;;5008863;28;20064;-72
2023/04/10 00:52:32;;;;;;;11.88;9.50;;;8.80;99.90;;;;;;4978433;28;20045;-72
2023/04/10 00:55:00;;;;;;;12.35;9.63;;;8.60;99.90;;;;;;4924611;28;1611709;-72
2023/04/10 00:57:28;;;;;;;13.07;10.25;;;8.70;99.90;;;;;;5007278;28;20433;-72
2023/04/10 00:59:55;;;;;;;11.90;9.52;;;8.80;99.90;;;;;;5010937;28;20038;-73
2023/04/10 01:02:23;;;;;;;12.05;9.57;;;8.90;99.90;;;;;;5009498;28;20050;-69
2023/04/10 01:04:51;;;;;;;12.95;9.07;;;8.90;99.90;;;;;;5013756;28;20065;-73
2023/04/10 01:07:46;;;;;;;11.82;9.38;;;8.90;99.90;;;;;;5008682;28;20056;-72
2023/04/10 01:10:22;;;;;;;11.32;10.13;;;8.90;99.90;;;;;;4980365;28;20037;-71
2023/04/10 01:13:15;;;;;;;12.25;9.52;;;9.00;99.90;;;;;;5019270;28;20052;-73
2023/04/10 01:16:06;;;;;;;12.35;9.57;;;9.00;99.90;;;;;;5019385;23;20045;-72
2023/04/10 01:18:45;;;;;;;11.65;8.90;;;9.00;99.90;;;;;;5026619;28;20116;-71
2023/04/10 01:21:15;;;;;;;12.27;9.75;;;9.00;99.90;;;;;;5024038;28;20480;-71
2023/04/10 01:24:04;;;;;;;12.85;9.25;;;9.10;99.90;;;;;;5024611;28;20041;-72
2023/04/10 01:27:03;;;;;;;13.23;9.73;;;9.10;99.90;;;;;;5004720;28;20038;-71
2023/04/10 01:29:33;;;;;;;11.80;9.05;;;9.00;99.90;;;;;;5004606;28;20057;-72
2023/04/10 01:32:10;;;;;;;11.15;9.00;;;9.00;99.90;;;;;;5004651;28;20648;-72
2023/04/10 01:34:46;;;;;;;11.98;9.63;;;9.00;99.90;;;;;;4996495;28;20045;-72
2023/04/10 01:37:29;;;;;;;12.30;8.57;;;9.00;99.90;;;;;;4998466;28;20053;-74
2023/04/10 01:40:08;;;;;;;13.57;9.93;;;9.10;99.90;;;;;;5020223;28;20103;-72
2023/04/10 01:42:42;;;;;;;12.68;9.27;;;9.20;99.90;;;;;;5011476;28;20042;-72
2023/04/10 01:45:17;;;;;;;13.07;10.30;;;9.20;99.90;;;;;;5030740;28;20051;-71
2023/04/10 01:47:44;;;;;;;11.50;8.90;;;9.10;99.90;;;;;;5009993;28;20536;-72
2023/04/10 01:50:14;;;;;;;11.82;9.45;;;9.10;99.90;;;;;;5025842;28;20441;-73
2023/04/10 01:52:45;;;;;;;11.13;8.90;;;9.20;99.90;;;;;;4994067;28;20111;-72
2023/04/10 01:55:13;;;;;;;13.82;10.00;;;9.20;99.90;;;;;;5023715;28;20387;-72
2023/04/10 01:57:40;;;;;;;13.45;9.80;;;9.20;99.90;;;;;;5000292;28;20057;-73
2023/04/10 02:00:11;;;;;;;11.85;9.63;;;9.10;99.90;;;;;;5012412;28;20485;-72
2023/04/10 02:02:38;;;;;;;11.85;9.18;;;9.10;99.90;;;;;;4983950;28;20069;-72
2023/04/10 02:05:06;;;;;;;14.35;9.52;;;9.00;99.90;;;;;;5008030;28;20037;-73
2023/04/10 02:08:00;;;;;;;11.82;9.23;;;9.00;99.90;;;;;;5013400;28;20040;-72
2023/04/10 02:10:55;;;;;;;10.27;8.70;;;9.00;99.90;;;;;;5012615;28;20492;-73
2023/04/10 02:13:26;;;;;;;12.35;8.63;;;9.10;99.90;;;;;;5007586;28;20131;-72
2023/04/10 02:15:57;;;;;;;10.93;7.88;;;9.00;99.90;;;;;;5012296;28;20081;-73
2023/04/10 02:18:26;;;;;;;9.77;7.95;;;9.10;99.90;;;;;;5010895;28;20045;-72
2023/04/10 02:20:54;;;;;;;11.88;9.00;;;9.10;99.90;;;;;;5028999;28;20041;-71
2023/04/10 02:23:22;;;;;;;14.27;10.25;;;9.10;99.90;;;;;;5028306;28;20061;-72
2023/04/10 02:25:50;;;;;;;13.02;10.02;;;9.10;99.90;;;;;;4991464;28;20041;-72
2023/04/10 02:28:17;;;;;;;15.95;10.48;;;9.10;99.90;;;;;;5013557;28;20049;-72
2023/04/10 02:30:46;;;;;;;13.38;10.57;;;9.20;99.90;;;;;;5033629;28;20049;-72
2023/04/10 02:33:14;;;;;;;15.43;9.65;;;9.20;99.90;;;;;;4987150;28;20480;-72
2023/04/10 02:35:41;;;;;;;12.88;10.57;;;9.30;99.90;;;;;;5015208;28;20046;-72
2023/04/10 02:38:08;;;;;;;13.18;10.02;;;9.30;99.90;;;;;;5016419;28;20160;-74
2023/04/10 02:40:37;;;;;;;13.07;10.63;;;9.30;99.90;;;;;;5004773;28;20057;-73
2023/04/10 02:43:04;;;;;;;13.95;10.00;;;9.30;99.90;;;;;;5015858;28;20048;-73
2023/04/10 02:45:32;;;;;;;13.35;10.13;;;9.30;99.90;;;;;;5033037;28;20038;-72
2023/04/10 02:47:59;;;;;;;14.25;10.43;;;9.30;99.90;;;;;;5033699;28;20045;-72
2023/04/10 02:50:28;;;;;;;13.70;10.10;;;9.20;99.90;;;;;;5032258;28;20041;-73
2023/04/10 02:52:55;;;;;;;14.13;10.48;;;9.00;99.90;;;;;;5014922;28;20094;-73
2023/04/10 02:55:23;;;;;;;14.43;10.75;;;8.90;99.90;;;;;;5016559;28;20040;-73
2023/04/10 02:57:50;;;;;;;13.93;10.13;;;9.00;99.90;;;;;;4990299;28;20128;-73
2023/04/10 03:00:18;;;;;;;14.55;10.77;;;9.10;99.90;;;;;;5022128;28;20037;-73
2023/04/10 03:02:45;;;;;;;12.95;9.70;;;9.20;99.90;;;;;;4990349;28;20386;-71
2023/04/10 03:05:13;;;;;;;13.95;10.57;;;9.20;99.90;;;;;;5028089;28;20054;-72
2023/04/10 03:07:41;;;;;;;13.48;10.68;;;9.00;99.90;;;;;;5013292;28;20150;-71
2023/04/10 03:10:08;;;;;;;14.63;10.52;;;9.10;99.90;;;;;;5017016;28;20045;-70
2023/04/10 03:12:36;;;;;;;12.52;9.95;;;9.20;99.90;;;;;;4997793;28;20459;-72
2023/04/10 03:15:04;;;;;;;15.00;11.20;;;9.20;99.90;;;;;;5028020;28;20050;-72
2023/04/10 03:17:34;;;;;;;15.18;11.15;;;9.00;99.90;;;;;;5014824;28;20049;-72
2023/04/10 03:20:02;;;;;;;14.65;11.35;;;9.00;99.90;;;;;;5002861;28;20072;-73
2023/04/10 03:22:31;;;;;;;14.95;11.32;;;9.10;99.90;;;;;;5021231;28;20038;-73
2023/04/10 03:24:59;;;;;;;15.75;11.75;;;9.10;99.90;;;;;;4997511;28;20049;-73
2023/04/10 03:27:26;;;;;;;15.25;11.07;;;9.20;99.90;;;;;;5010567;28;20140;-72
2023/04/10 03:29:53;;;;;;;14.52;10.65;;;9.30;99.90;;;;;;4997394;28;20049;-71
2023/04/10 03:32:21;;;;;;;16.98;12.07;;;9.30;99.90;;;;;;5009816;28;20144;-73
2023/04/10 03:34:48;;;;;;;13.63;10.75;;;9.40;99.90;;;;;;5022492;28;20455;-73
2023/04/10 03:37:16;;;;;;;16.10;11.32;;;9.30;99.90;;;;;;5000223;28;20112;-72
2023/04/10 03:39:43;;;;;;;15.75;10.88;;;9.30;99.90;;;;;;5002564;28;20481;-72
2023/04/10 03:42:11;;;;;;;19.38;12.95;;;9.30;99.90;;;;;;5014889;28;20409;-72
2023/04/10 03:44:38;;;;;;;15.10;11.60;;;9.30;99.90;;;;;;5014913;28;20060;-73
2023/04/10 03:47:05;;;;;;;16.60;12.73;;;9.20;99.90;;;;;;5014279;28;20060;-71
2023/04/10 03:49:33;;;;;;;15.70;11.93;;;9.20;99.90;;;;;;5032557;28;20374;-72
2023/04/10 03:52:00;;;;;;;17.45;13.13;;;9.20;99.90;;;;;;4999275;28;20050;-72
2023/04/10 03:54:27;;;;;;;18.33;12.60;;;9.20;99.90;;;;;;5008161;28;20045;-72
2023/04/10 03:56:56;;;;;;;15.25;11.73;;;9.10;99.90;;;;;;5025318;28;20037;-72
2023/04/10 03:59:23;;;;;;;17.25;11.60;;;9.10;99.90;;;;;;4986478;28;20045;-72
2023/04/10 04:02:05;;;;;;;;;;;9.00;99.90;;;;;;5001902;28;20045;-72
2023/04/10 04:04:32;;;;;;;16.25;11.52;;;9.00;99.90;;;;;;5004009;28;19963;-73
2023/04/10 04:07:00;;;;;;;15.38;11.50;;;9.00;99.90;;;;;;5029212;28;20038;-74
2023/04/10 04:09:27;;;;;;;17.42;12.20;;;9.10;99.90;;;;;;5014784;28;20053;-71
2023/04/10 04:11:55;;;;;;;15.18;11.10;;;9.00;99.90;;;;;;5031908;28;20405;-74
2023/04/10 04:14:23;;;;;;;15.32;11.40;;;9.00;99.90;;;;;;5014221;28;20461;-74
2023/04/10 04:16:50;;;;;;;16.20;11.63;;;9.00;99.90;;;;;;5031798;28;20401;-74
2023/04/10 04:19:17;;;;;;;16.35;11.90;;;9.00;99.90;;;;;;5020144;28;20445;-74
2023/04/10 04:21:45;;;;;;;16.08;11.00;;;9.00;99.90;;;;;;5000720;28;20393;-74
2023/04/10 04:24:12;;;;;;;14.27;11.30;;;9.10;99.90;;;;;;5001999;28;20049;-74
2023/04/10 04:26:42;;;;;;;14.43;11.18;;;9.00;99.90;;;;;;4979675;28;20041;-74
2023/04/10 04:29:12;;;;;;;14.25;11.02;;;8.90;99.90;;;;;;4980768;28;20058;-74
2023/04/10 04:31:39;;;;;;;15.75;10.32;;;8.90;99.90;;;;;;5008092;28;20083;-73
2023/04/10 04:34:06;;;;;;;13.63;10.40;;;8.90;99.90;;;;;;5012721;28;20405;-72
2023/04/10 04:36:34;;;;;;;14.35;10.55;;;8.80;99.90;;;;;;5016943;28;20395;-73
2023/04/10 04:39:01;;;;;;;14.38;10.95;;;8.80;99.90;;;;;;5012707;28;20049;-73
2023/04/10 04:41:31;;;;;;;12.45;10.27;;;8.70;99.90;;;;;;5023718;28;20066;-74
2023/04/10 04:44:00;;;;;;;14.30;10.65;;;8.70;99.90;;;;;;5018451;28;20401;-74
2023/04/10 04:46:28;;;;;;;12.77;10.18;;;8.70;99.90;;;;;;5007053;28;20096;-73
2023/04/10 04:48:55;;;;;;;12.48;10.05;;;8.80;99.90;;;;;;5020338;28;20041;-72
2023/04/10 04:51:22;;;;;;;11.88;9.70;;;8.90;99.90;;;;;;4990966;28;20053;-74
2023/04/10 04:53:50;;;;;;;13.88;10.43;;;8.90;99.90;;;;;;4992958;28;20053;-73
2023/04/10 04:56:17;;;;;;;13.02;9.93;;;8.80;99.90;;;;;;5013931;28;20045;-72
2023/04/10 04:58:44;;;;;;;15.68;12.32;;;8.80;99.90;;;;;;5030381;28;20048;-74
2023/04/10 05:01:11;;;;;;;22.00;14.50;;;8.80;99.90;;;;;;5030710;28;20440;-70
2023/04/10 05:03:39;;;;;;;128.95;76.97;;;8.80;99.90;;;;;;5003866;28;20077;-71
2023/04/10 05:06:06;;;;;;;56.88;38.00;;;8.90;99.90;;;;;;5010255;28;20493;-71
2023/04/10 05:08:34;;;;;;;23.00;17.95;;;8.90;99.90;;;;;;5009266;28;20052;-73
2023/04/10 05:11:01;;;;;;;19.50;15.07;;;8.70;99.90;;;;;;5021884;28;20104;-70
2023/04/10 05:13:28;;;;;;;17.02;11.77;;;8.60;99.90;;;;;;5004214;28;20052;-72
2023/04/10 05:15:56;;;;;;;15.55;11.45;;;8.50;99.90;;;;;;5011993;28;20099;-71
2023/04/10 05:18:23;;;;;;;13.38;10.30;;;8.70;99.90;;;;;;5000106;28;20091;-70
2023/04/10 05:20:50;;;;;;;13.23;10.70;;;8.70;99.90;;;;;;5030750;28;20037;-72
2023/04/10 05:23:18;;;;;;;13.80;10.18;;;8.80;99.90;;;;;;4998262;28;20050;-71
2023/04/10 05:25:45;;;;;;;14.10;9.98;;;9.00;99.90;;;;;;5013312;28;20104;-72
2023/04/10 05:28:14;;;;;;;15.23;10.80;;;9.00;99.90;;;;;;5012044;28;20457;-72
2023/04/10 05:30:50;;;;;;;12.45;9.80;;;8.90;99.90;;;;;;4981353;28;20077;-72
2023/04/10 05:33:17;;;;;;;13.10;9.18;;;8.80;99.90;;;;;;5012496;28;20447;-72
2023/04/10 05:35:45;;;;;;;13.32;10.20;;;8.90;99.90;;;;;;5007666;28;20087;-73
2023/04/10 05:38:13;;;;;;;12.95;9.18;;;8.90;99.90;;;;;;5010775;28;20132;-73
2023/04/10 05:40:44;;;;;;;12.38;10.02;;;9.00;99.90;;;;;;5010583;28;20049;-72
2023/04/10 05:43:11;;;;;;;10.70;8.80;;;9.10;99.90;;;;;;5019931;28;20552;-72
2023/04/10 05:45:43;;;;;;;10.27;8.40;;;9.20;99.90;;;;;;5016111;28;20049;-73
2023/04/10 05:48:11;;;;;;;10.85;8.55;;;9.20;99.90;;;;;;5025710;28;20443;-71
2023/04/10 05:50:38;;;;;;;11.55;8.60;;;9.10;99.90;;;;;;5001298;28;20049;-73
2023/04/10 05:53:11;;;;;;;11.43;8.23;;;9.30;99.90;;;;;;5018810;28;20041;-72
2023/04/10 05:55:39;;;;;;;11.80;8.20;;;9.30;99.90;;;;;;5012415;28;20095;-72
2023/04/10 05:58:06;;;;;;;9.85;7.70;;;9.20;99.90;;;;;;5002629;28;20049;-73
2023/04/10 06:00:33;;;;;;;10.05;7.63;;;8.90;99.90;;;;;;5027924;28;20125;-74
2023/04/10 06:03:01;;;;;;;10.32;7.75;;;8.90;99.90;;;;;;5030856;28;20060;-71
2023/04/10 06:05:29;;;;;;;13.65;8.63;;;8.90;99.90;;;;;;5019309;28;20045;-71
2023/04/10 06:07:56;;;;;;;13.32;9.50;;;9.00;99.90;;;;;;5015721;28;20397;-72
2023/04/10 06:10:30;;;;;;;15.55;9.52;;;9.20;99.90;;;;;;5031863;28;20037;-71
2023/04/10 06:12:57;;;;;;;13.75;10.02;;;9.30;99.90;;;;;;5033217;28;20470;-74
2023/04/10 06:15:24;;;;;;;12.73;8.82;;;9.40;99.90;;;;;;5032832;28;20497;-71
2023/04/10 06:17:52;;;;;;;13.43;8.82;;;9.30;99.90;;;;;;5033111;28;20045;-73
2023/04/10 06:20:20;;;;;;;12.48;9.00;;;9.40;99.90;;;;;;5022082;28;20075;-74
2023/04/10 06:22:47;;;;;;;14.57;8.93;;;9.20;99.90;;;;;;5002869;28;20061;-73
2023/04/10 06:25:15;;;;;;;12.40;9.13;;;9.20;99.90;;;;;;5033767;28;20156;-70
2023/04/10 06:27:42;;;;;;;14.25;10.23;;;9.20;99.90;;;;;;5033485;28;20048;-72
2023/04/10 06:30:10;;;;;;;16.60;10.70;;;9.40;99.90;;;;;;5016020;28;20060;-75
2023/04/10 06:32:37;;;;;;;16.60;12.00;;;9.40;99.90;;;;;;5033739;28;20040;-73
2023/04/10 06:35:04;;;;;;;20.88;12.73;;;9.40;99.90;;;;;;5034161;28;20149;-71
2023/04/10 06:37:31;;;;;;;23.88;14.30;;;9.40;99.90;;;;;;5019422;28;20499;-73
2023/04/10 06:40:09;;;;;;;21.45;13.95;;;9.40;99.90;;;;;;5028987;28;20592;-70
2023/04/10 06:42:37;;;;;;;23.05;14.68;;;9.40;99.90;;;;;;5027402;28;20392;-73
2023/04/10 06:45:04;;;;;;;23.50;15.18;;;9.40;99.90;;;;;;5018481;28;20034;-73
2023/04/10 06:47:32;;;;;;;22.40;14.50;;;9.50;99.90;;;;;;5026865;28;20052;-71
2023/04/10 06:49:59;;;;;;;19.67;13.27;;;9.60;99.90;;;;;;5027589;28;20076;-71
2023/04/10 06:52:27;;;;;;;20.48;12.95;;;10.00;99.90;;;;;;5003075;28;20509;-72
2023/04/10 06:54:54;;;;;;;14.82;10.65;;;9.90;99.90;;;;;;5023055;28;20060;-72
2023/04/10 06:57:21;;;;;;;19.20;11.93;;;9.90;99.90;;;;;;5014455;28;20037;-70
2023/04/10 06:59:48;;;;;;;17.27;11.30;;;9.70;99.90;;;;;;5014464;28;20053;-73
2023/04/10 07:02:16;;;;;;;21.92;13.23;;;10.00;99.90;;;;;;5014264;28;20030;-74
2023/04/10 07:04:43;;;;;;;20.00;13.90;;;10.00;99.90;;;;;;5013934;28;20100;-72
2023/04/10 07:07:12;;;;;;;21.42;13.20;;;9.70;99.90;;;;;;5014283;28;20045;-69
2023/04/10 07:09:40;;;;;;;20.48;13.73;;;9.80;99.90;;;;;;5009577;28;20064;-72
2023/04/10 07:12:07;;;;;;;22.80;13.23;;;9.70;99.90;;;;;;5025984;28;20038;-73
2023/04/10 07:14:34;;;;;;;17.50;12.18;;;9.80;99.90;;;;;;5013455;28;20056;-74
2023/04/10 07:17:02;;;;;;;18.45;11.82;;;10.10;99.90;;;;;;5021958;28;20029;-73
2023/04/10 07:19:29;;;;;;;15.88;10.75;;;10.20;99.90;;;;;;5003800;28;20057;-71
2023/04/10 07:21:59;;;;;;;14.15;10.07;;;10.00;99.90;;;;;;5015080;28;20045;-73
2023/04/10 07:24:27;;;;;;;12.95;9.90;;;10.20;99.90;;;;;;4980948;28;20046;-71
2023/04/10 07:26:56;;;;;;;13.60;9.10;;;10.50;99.90;;;;;;5033041;28;20045;-70
2023/04/10 07:29:23;;;;;;;13.23;8.70;;;10.50;99.90;;;;;;5021438;28;20042;-74
2023/04/10 07:31:50;;;;;;;14.02;8.70;;;10.40;99.90;;;;;;5024363;28;20449;-70
2023/04/10 07:34:17;;;;;;;9.55;7.60;;;10.40;99.90;;;;;;5019297;28;20128;-71
2023/04/10 07:36:46;;;;;;;10.35;7.30;;;10.50;99.90;;;;;;5013631;28;20030;-71
2023/04/10 07:39:13;;;;;;;8.63;6.93;;;10.50;99.90;;;;;;5030127;28;20064;-73
2023/04/10 07:41:40;;;;;;;9.57;7.40;;;10.60;99.90;;;;;;5015893;28;20070;-71
2023/04/10 07:44:07;;;;;;;8.18;6.60;;;10.70;99.90;;;;;;5025615;28;20068;-71
2023/04/10 07:46:35;;;;;;;9.63;7.30;;;10.50;99.90;;;;;;5008680;28;20046;-72
2023/04/10 07:49:02;;;;;;;10.35;7.38;;;10.80;99.90;;;;;;5020242;28;20046;-71
2023/04/10 07:51:31;;;;;;;10.15;7.30;;;10.70;99.90;;;;;;5005134;28;20517;-73
2023/04/10 07:54:03;;;;;;;9.73;7.10;;;10.90;99.90;;;;;;5025884;28;20478;-73
2023/04/10 07:56:30;;;;;;;8.00;6.00;;;11.00;99.90;;;;;;5012939;28;20042;-71
2023/04/10 07:58:59;;;;;;;7.25;5.85;;;10.80;99.90;;;;;;5012786;28;20052;-72
2023/04/10 08:01:30;;;;;;;7.63;5.72;;;10.80;99.90;;;;;;5012974;28;20038;-72
2023/04/10 08:03:57;;;;;;;6.65;5.28;;;10.70;99.90;;;;;;5008607;28;20053;-73
2023/04/10 08:06:25;;;;;;;7.22;5.63;;;10.60;99.90;;;;;;5012787;28;20398;-73
2023/04/10 08:08:52;;;;;;;8.95;6.50;;;10.90;99.90;;;;;;5015258;28;20045;-75
2023/04/10 08:11:31;;;;;;;6.03;4.63;;;11.50;99.90;;;;;;5013922;28;20050;-70
2023/04/10 08:14:04;;;;;;;7.72;5.22;;;11.20;99.90;;;;;;5024503;28;20412;-72
2023/04/10 08:16:33;;;;;;;7.10;5.70;;;11.00;99.90;;;;;;5016185;28;20033;-71
2023/04/10 08:19:01;;;;;;;6.63;5.45;;;11.20;99.90;;;;;;5021954;28;20052;-73
2023/04/10 08:21:30;;;;;;;5.93;5.15;;;11.30;99.90;;;;;;5022734;28;20048;-72
2023/04/10 08:24:00;;;;;;;7.32;5.38;;;11.60;99.90;;;;;;5026311;28;20415;-74
2023/04/10 08:26:28;;;;;;;6.63;5.28;;;12.10;99.90;;;;;;5024599;28;20052;-72
2023/04/10 08:28:58;;;;;;;6.55;5.13;;;12.50;99.90;;;;;;5026936;28;20072;-73
2023/04/10 08:31:27;;;;;;;6.50;5.28;;;11.90;99.90;;;;;;5021930;28;20096;-71
2023/04/10 08:33:55;;;;;;;8.13;5.70;;;12.00;99.90;;;;;;5008051;28;20480;-71
2023/04/10 08:36:23;;;;;;;6.43;5.35;;;11.90;99.90;;;;;;5009565;28;20525;-71
2023/04/10 08:38:50;;;;;;;6.88;5.20;;;12.20;99.90;;;;;;5019216;28;20038;-70
2023/04/10 08:41:18;;;;;;;7.07;5.55;;;12.60;99.90;;;;;;5020925;28;20037;-74
2023/04/10 08:43:46;;;;;;;7.32;5.68;;;12.90;99.90;;;;;;5028774;28;20064;-72
2023/04/10 08:46:13;;;;;;;7.20;5.30;;;13.20;99.90;;;;;;5012868;28;20396;-75
2023/04/10 08:48:52;;;;;;;7.82;5.40;;;12.90;99.90;;;;;;4996587;28;20046;-72
2023/04/10 08:51:21;;;;;;;7.72;5.70;;;12.90;99.90;;;;;;5000306;28;20473;-70
2023/04/10 08:54:00;;;;;;;6.57;5.00;;;13.40;99.90;;;;;;5008612;28;20080;-70
2023/04/10 08:56:31;;;;;;;6.30;4.97;;;13.10;99.90;;;;;;5023119;28;20041;-73
2023/04/10 08:59:01;;;;;;;6.60;5.05;;;12.60;99.90;;;;;;5006876;28;20128;-73
2023/04/10 09:01:29;;;;;;;6.03;5.07;;;12.70;99.90;;;;;;5004357;28;20478;-72
2023/04/10 09:04:00;;;;;;;6.22;4.97;;;12.90;99.90;;;;;;5018150;28;20041;-74
2023/04/10 09:06:28;;;;;;;6.53;4.88;;;12.70;99.90;;;;;;4990965;28;20068;-71
2023/04/10 09:08:58;;;;;;;7.10;5.20;;;12.10;99.90;;;;;;5030537;28;20088;-74
2023/04/10 09:11:54;;;;;;;6.18;5.00;;;12.10;99.90;;;;;;5004391;28;20139;-73
2023/04/10 09:14:25;;;;;;;;;;;11.90;99.90;;;;;;5001761;28;20064;-73
2023/04/10 09:17:24;;;;;;;7.13;5.40;;;12.10;99.90;;;;;;5023592;28;19929;-73
2023/04/10 09:19:58;;;;;;;8.77;6.03;;;12.40;99.90;;;;;;4984747;28;20465;-74
2023/04/10 09:22:33;;;;;;;7.93;5.30;;;12.50;99.90;;;;;;4983320;28;20111;-72
2023/04/10 09:25:03;;;;;;;7.30;5.50;;;12.60;99.90;;;;;;5011454;28;20045;-75
2023/04/10 09:27:34;;;;;;;8.85;5.90;;;12.60;99.90;;;;;;5004594;28;20050;-72
2023/04/10 09:30:05;;;;;;;7.95;5.75;;;12.80;99.90;;;;;;5025772;28;20113;-71
2023/04/10 09:32:41;;;;;;;13.23;7.72;;;12.80;99.90;;;;;;5013346;28;20050;-73
2023/04/10 09:35:13;;;;;;;12.25;6.20;;;13.30;99.90;;;;;;5008578;28;20398;-72
2023/04/10 09:37:45;;;;;;;7.68;5.00;;;13.40;99.90;;;;;;4982429;28;20041;-72
2023/04/10 09:40:24;;;;;;;19.23;7.45;;;13.20;99.90;;;;;;5013788;28;20049;-73
2023/04/10 09:42:52;;;;;;;6.75;5.18;;;13.50;99.90;;;;;;5011404;28;20045;-74
2023/04/10 09:45:21;;;;;;;8.35;5.47;;;13.30;99.90;;;;;;5025317;28;20037;-76
2023/04/10 09:48:08;;;;;;;8.90;5.75;;;13.40;99.90;;;;;;5008868;28;20129;-74
2023/04/10 09:50:43;;;;;;;7.40;5.60;;;13.50;99.90;;;;;;4987850;28;20038;-72
2023/04/10 09:53:13;;;;;;;10.82;5.88;;;13.20;99.90;;;;;;4992417;28;20041;-74
2023/04/10 09:55:42;;;;;;;9.77;6.95;;;13.20;99.90;;;;;;4986170;28;20509;-73
2023/04/10 09:58:17;;;;;;;7.28;5.38;;;13.20;99.90;;;;;;4986172;28;20038;-72
2023/04/10 10:00:53;;;;;;;9.88;5.72;;;13.10;99.90;;;;;;5010985;28;20086;-75
2023/04/10 10:03:21;;;;;;;8.93;5.57;;;13.20;99.90;;;;;;4991158;28;20046;-72
2023/04/10 10:05:51;;;;;;;8.38;6.07;;;12.90;99.90;;;;;;4996753;28;20041;-74
2023/04/10 10:08:19;;;;;;;10.73;6.20;;;13.00;99.90;;;;;;5028892;28;20029;-72
2023/04/10 10:10:52;;;;;;;8.90;6.15;;;13.30;99.90;;;;;;5020670;28;20053;-73
2023/04/10 10:13:31;;;;;;;9.55;5.95;;;13.30;99.90;;;;;;5004519;28;20507;-74
2023/04/10 10:16:31;;;;;;;7.88;5.70;;;13.40;99.90;;;;;;5012063;28;20496;-73
2023/04/10 10:19:02;;;;;;;8.30;5.90;;;13.30;99.90;;;;;;5025962;28;20033;-72
2023/04/10 10:21:32;;;;;;;8.38;6.40;;;13.50;99.90;;;;;;5012809;28;20505;-73
2023/04/10 10:24:01;;;;;;;8.27;6.07;;;13.90;99.90;;;;;;5026720;28;20038;-73
2023/04/10 10:26:31;;;;;;;9.65;6.28;;;14.40;99.10;;;;;;5028861;28;20128;-73
2023/04/10 10:29:01;;;;;;;8.27;5.50;;;14.10;98.70;;;;;;5028968;28;20370;-74
2023/04/10 10:31:36;;;;;;;7.75;5.35;;;14.40;96.20;;;;;;5010050;28;20042;-78
2023/04/10 10:34:06;;;;;;;7.97;5.90;;;14.40;96.50;;;;;;5024005;28;20493;-75
2023/04/10 10:36:38;;;;;;;8.75;5.95;;;15.10;95.00;;;;;;4988094;28;20058;-77
2023/04/10 10:39:08;;;;;;;8.18;5.82;;;15.10;94.60;;;;;;5016681;28;20038;-79
2023/04/10 10:41:56;;;;;;;8.98;6.22;;;14.80;93.30;;;;;;5023630;28;20034;-82
2023/04/10 10:44:36;;;;;;;7.63;5.68;;;15.00;94.70;;;;;;4983700;28;20045;-76
2023/04/10 10:47:29;;;;;;;7.10;5.50;;;15.30;95.60;;;;;;4979021;28;20049;-77
2023/04/10 10:49:59;;;;;;;8.85;6.80;;;15.20;93.20;;;;;;4993670;28;20400;-79
2023/04/10 10:52:37;;;;;;;7.63;5.65;;;14.90;94.40;;;;;;5003997;28;20460;-80
2023/04/10 10:55:30;;;;;;;7.80;5.70;;;15.30;93.30;;;;;;5041041;28;20049;-75
2023/04/10 10:58:00;;;;;;;7.75;5.60;;;15.10;92.70;;;;;;5037295;28;20413;-82
2023/04/10 11:00:49;;;;;;;9.95;5.63;;;15.10;93.80;;;;;;5020115;28;20065;-79
2023/04/10 11:03:21;;;;;;;8.48;6.25;;;15.00;93.20;;;;;;5020408;28;20034;-75
2023/04/10 11:05:58;;;;;;;7.65;5.85;;;15.00;93.30;;;;;;4986541;28;20501;-75
2023/04/10 11:08:46;;;;;;;8.10;6.20;;;14.40;94.20;;;;;;4997210;28;20141;-77
2023/04/10 11:11:26;;;;;;;8.20;6.13;;;14.70;92.90;;;;;;4999225;28;20042;-80
2023/04/10 11:13:56;;;;;;;10.70;6.72;;;14.80;93.90;;;;;;5001472;28;20068;-82
2023/04/10 11:16:40;;;;;;;9.55;6.47;;;15.80;93.90;;;;;;4992594;28;20072;-78
2023/04/10 11:19:13;;;;;;;9.07;6.60;;;15.80;91.90;;;;;;5034159;28;20121;-82
2023/04/10 11:22:24;;;;;;;7.53;5.85;;;15.80;92.80;;;;;;5015683;28;20037;-83
2023/04/10 11:25:01;;;;;;;8.65;6.65;;;15.20;92.50;;;;;;4995010;28;20094;-79
2023/04/10 11:27:47;;;;;;;9.38;7.05;;;15.40;92.80;;;;;;5026232;28;20122;-80
2023/04/10 11:30:32;;;;;;;12.63;6.15;;;15.70;91.80;;;;;;5000907;23;20045;-77
2023/04/10 11:33:04;;;;;;;9.05;6.53;;;15.10;90.20;;;;;;4995544;28;20053;-81
2023/04/10 11:35:40;;;;;;;9.73;6.72;;;14.50;91.80;;;;;;5013897;28;20042;-77
2023/04/10 11:38:17;;;;;;;9.45;6.70;;;15.20;92.70;;;;;;5000331;28;20049;-80
2023/04/10 11:40:57;;;;;;;7.72;5.95;;;15.00;90.90;;;;;;5009056;28;20052;-80
2023/04/10 11:43:24;;;;;;;8.68;5.57;;;14.70;91.60;;;;;;4993553;28;20047;-79
2023/04/10 11:46:06;;;;;;;11.02;6.63;;;14.80;91.60;;;;;;4993755;28;20034;-79
2023/04/10 11:48:35;;;;;;;8.02;6.15;;;15.10;90.60;;;;;;5007595;28;20513;-79
2023/04/10 11:51:07;;;;;;;10.30;6.93;;;15.20;91.20;;;;;;4995212;28;20058;-79
2023/04/10 11:53:35;;;;;;;10.57;6.30;;;15.30;90.40;;;;;;5009640;28;20077;-81
2023/04/10 11:56:13;;;;;;;9.13;6.72;;;15.30;90.40;;;;;;4994999;28;20049;-78
2023/04/10 11:58:46;;;;;;;8.60;6.47;;;15.20;89.70;;;;;;4989639;28;20089;-78
2023/04/10 12:01:13;;;;;;;9.60;6.97;;;15.40;91.40;;;;;;4986709;28;20046;-79
2023/04/10 12:03:44;;;;;;;8.07;6.30;;;15.40;90.20;;;;;;4978441;28;20046;-79
2023/04/10 12:06:24;;;;;;;7.88;6.15;;;15.40;90.20;;;;;;4995269;28;20052;-80
2023/04/10 12:08:54;;;;;;;8.98;6.38;;;14.90;91.60;;;;;;5013903;28;20042;-76
2023/04/10 12:11:27;;;;;;;8.88;6.80;;;15.30;91.00;;;;;;4996910;28;20080;-78
2023/04/10 12:14:05;;;;;;;9.85;7.10;;;15.40;91.00;;;;;;4995057;28;20452;-77
2023/04/10 12:16:37;;;;;;;9.25;6.45;;;14.80;91.40;;;;;;4997411;28;20049;-79
2023/04/10 12:19:05;;;;;;;10.18;7.47;;;14.80;91.50;;;;;;5003152;28;20142;-80
2023/04/10 12:21:35;;;;;;;9.98;6.68;;;15.20;91.30;;;;;;4994220;28;20048;-79
2023/04/10 12:24:03;;;;;;;11.45;7.05;;;15.60;87.90;;;;;;4994131;28;20053;-79
2023/04/10 12:26:37;;;;;;;10.23;6.60;;;17.30;83.80;;;;;;4999142;28;20044;-76
2023/04/10 12:29:06;;;;;;;8.75;6.43;;;17.80;79.20;;;;;;4998161;28;20077;-78
2023/04/10 12:31:35;;;;;;;9.77;6.65;;;16.60;81.30;;;;;;4996884;28;20046;-77
2023/04/10 12:34:04;;;;;;;9.10;6.78;;;15.60;83.90;;;;;;4996896;28;20045;-78
2023/04/10 12:36:33;;;;;;;8.55;6.25;;;15.40;87.50;;;;;;5032284;28;20112;-79
2023/04/10 12:39:08;;;;;;;8.45;6.10;;;15.30;87.90;;;;;;5029375;23;20038;-77
2023/04/10 12:41:38;;;;;;;8.15;6.32;;;15.00;87.60;;;;;;5000552;28;20068;-78
2023/04/10 12:44:12;;;;;;;8.52;5.93;;;14.90;89.40;;;;;;4999455;28;20042;-80
2023/04/10 12:46:41;;;;;;;9.13;6.60;;;14.70;90.10;;;;;;5016148;28;20041;-77
2023/04/10 12:49:16;;;;;;;8.35;6.70;;;14.80;88.80;;;;;;5031998;28;20443;-79
2023/04/10 12:51:48;;;;;;;9.00;6.50;;;14.60;88.20;;;;;;5014280;28;20046;-78
2023/04/10 12:54:34;;;;;;;9.48;7.00;;;14.40;88.70;;;;;;5013995;28;20045;-77
2023/04/10 12:57:05;;;;;;;8.40;6.35;;;14.60;87.40;;;;;;4990922;28;20054;-77
2023/04/10 12:59:35;;;;;;;10.25;7.07;;;14.70;88.10;;;;;;4985853;28;20046;-78
2023/04/10 13:02:02;;;;;;;10.10;6.57;;;14.40;87.60;;;;;;5014628;28;20539;-78